sensor_id;sensor_type;location;lat;lon;timestamp;P1;durP1;ratioP1;P2;durP2;ratioP2
1174;SDS011;576;48.418;10.074;2023-06-04T00:00:31;6.93;;;6.43;;
1174;SDS011;576;48.418;10.074;2023-06-04T00:02:59;6.33;;;5.83;;
1174;SDS011;576;48.418;10.074;2023-06-04T00:05:28;7.43;;;6.80;;
1174;SDS011;576;48.418;10.074;2023-06-04T00:07:56;7.10;;;6.40;;
1174;SDS011;576;48.418;10.074;2023-06-04T00:10:25;6.93;;;6.43;;
1174;SDS011;576;48.418;10.074;2023-06-04T00:12:54;6.40;;;5.80;;
1174;SDS011;576;48.418;10.074;2023-06-04T00:15:22;6.70;;;6.20;;
1174;SDS011;576;48.418;10.074;2023-06-04T00:17:50;5.83;;;5.43;;
1174;SDS011;576;48.418;10.074;2023-06-04T00:20:18;6.37;;;5.77;;
1174;SDS011;576;48.418;10.074;2023-06-04T00:22:47;6.90;;;6.40;;
1174;SDS011;576;48.418;10.074;2023-06-04T00:25:15;6.50;;;6.00;;
1174;SDS011;576;48.418;10.074;2023-06-04T00:27:45;6.83;;;6.00;;
1174;SDS011;576;48.418;10.074;2023-06-04T00:30:13;6.13;;;5.63;;
1174;SDS011;576;48.418;10.074;2023-06-04T00:32:42;4.97;;;4.67;;
1174;SDS011;576;48.418;10.074;2023-06-04T00:35:10;6.50;;;6.00;;
1174;SDS011;576;48.418;10.074;2023-06-04T00:37:38;5.10;;;4.70;;
1174;SDS011;576;48.418;10.074;2023-06-04T00:40:07;5.93;;;5.40;;
1174;SDS011;576;48.418;10.074;2023-06-04T00:42:35;6.10;;;5.50;;
1174;SDS011;576;48.418;10.074;2023-06-04T00:45:06;5.10;;;4.70;;
1174;SDS011;576;48.418;10.074;2023-06-04T00:47:36;5.03;;;4.63;;
1174;SDS011;576;48.418;10.074;2023-06-04T00:50:05;4.67;;;4.37;;
1174;SDS011;576;48.418;10.074;2023-06-04T00:52:34;4.87;;;4.47;;
1174;SDS011;576;48.418;10.074;2023-06-04T00:55:02;5.47;;;4.97;;
1174;SDS011;576;48.418;10.074;2023-06-04T00:57:31;5.97;;;5.47;;
1174;SDS011;576;48.418;10.074;2023-06-04T00:59:59;4.90;;;4.07;;
1174;SDS011;576;48.418;10.074;2023-06-04T01:02:28;5.23;;;4.83;;
1174;SDS011;576;48.418;10.074;2023-06-04T01:04:58;4.97;;;4.57;;
1174;SDS011;576;48.418;10.074;2023-06-04T01:07:35;4.20;;;3.90;;
1174;SDS011;576;48.418;10.074;2023-06-04T01:10:04;4.90;;;4.40;;
1174;SDS011;576;48.418;10.074;2023-06-04T01:12:33;4.50;;;4.10;;
1174;SDS011;576;48.418;10.074;2023-06-04T01:15:01;4.90;;;4.50;;
1174;SDS011;576;48.418;10.074;2023-06-04T01:17:31;4.50;;;4.10;;
1174;SDS011;576;48.418;10.074;2023-06-04T01:20:06;6.53;;;4.57;;
1174;SDS011;576;48.418;10.074;2023-06-04T01:22:55;5.03;;;4.53;;
1174;SDS011;576;48.418;10.074;2023-06-04T01:25:33;4.50;;;4.20;;
1174;SDS011;576;48.418;10.074;2023-06-04T01:28:03;4.07;;;3.77;;
1174;SDS011;576;48.418;10.074;2023-06-04T01:30:35;5.00;;;4.60;;
1174;SDS011;576;48.418;10.074;2023-06-04T01:33:10;4.30;;;4.00;;
1174;SDS011;576;48.418;10.074;2023-06-04T01:35:39;3.77;;;3.57;;
1174;SDS011;576;48.418;10.074;2023-06-04T01:38:08;4.23;;;3.90;;
1174;SDS011;576;48.418;10.074;2023-06-04T01:40:36;5.70;;;5.10;;
1174;SDS011;576;48.418;10.074;2023-06-04T01:43:05;4.20;;;3.90;;
1174;SDS011;576;48.418;10.074;2023-06-04T01:45:33;3.97;;;3.67;;
1174;SDS011;576;48.418;10.074;2023-06-04T01:48:02;3.60;;;3.40;;
1174;SDS011;576;48.418;10.074;2023-06-04T01:50:33;3.60;;;3.30;;
1174;SDS011;576;48.418;10.074;2023-06-04T01:53:01;3.60;;;3.30;;
1174;SDS011;576;48.418;10.074;2023-06-04T01:55:29;4.47;;;4.07;;
1174;SDS011;576;48.418;10.074;2023-06-04T01:58:00;3.17;;;2.97;;
1174;SDS011;576;48.418;10.074;2023-06-04T02:00:28;4.00;;;3.60;;
1174;SDS011;576;48.418;10.074;2023-06-04T02:02:56;3.50;;;3.20;;
1174;SDS011;576;48.418;10.074;2023-06-04T02:05:26;3.40;;;3.10;;
1174;SDS011;576;48.418;10.074;2023-06-04T02:07:55;3.67;;;3.37;;
1174;SDS011;576;48.418;10.074;2023-06-04T02:10:24;2.90;;;2.70;;
1174;SDS011;576;48.418;10.074;2023-06-04T02:12:53;3.37;;;3.07;;
1174;SDS011;576;48.418;10.074;2023-06-04T02:15:23;3.13;;;2.93;;
1174;SDS011;576;48.418;10.074;2023-06-04T02:17:53;3.33;;;3.03;;
1174;SDS011;576;48.418;10.074;2023-06-04T02:20:24;3.30;;;3.00;;
1174;SDS011;576;48.418;10.074;2023-06-04T02:22:53;3.10;;;2.80;;
1174;SDS011;576;48.418;10.074;2023-06-04T02:25:25;3.77;;;3.30;;
1174;SDS011;576;48.418;10.074;2023-06-04T02:27:53;4.50;;;3.27;;
1174;SDS011;576;48.418;10.074;2023-06-04T02:30:21;3.57;;;3.27;;
1174;SDS011;576;48.418;10.074;2023-06-04T02:32:50;3.43;;;3.13;;
1174;SDS011;576;48.418;10.074;2023-06-04T02:35:21;3.10;;;2.90;;
1174;SDS011;576;48.418;10.074;2023-06-04T02:37:51;3.40;;;3.10;;
1174;SDS011;576;48.418;10.074;2023-06-04T02:40:20;3.53;;;3.23;;
1174;SDS011;576;48.418;10.074;2023-06-04T02:42:49;4.73;;;2.77;;
1174;SDS011;576;48.418;10.074;2023-06-04T02:45:17;3.30;;;3.10;;
1174;SDS011;576;48.418;10.074;2023-06-04T02:47:45;3.70;;;3.10;;
1174;SDS011;576;48.418;10.074;2023-06-04T02:50:14;3.10;;;2.90;;
1174;SDS011;576;48.418;10.074;2023-06-04T02:52:43;3.30;;;3.03;;
1174;SDS011;576;48.418;10.074;2023-06-04T02:55:12;2.90;;;2.70;;
1174;SDS011;576;48.418;10.074;2023-06-04T02:57:41;2.83;;;2.63;;
1174;SDS011;576;48.418;10.074;2023-06-04T03:00:10;3.47;;;3.17;;
1174;SDS011;576;48.418;10.074;2023-06-04T03:02:40;2.80;;;2.60;;
1174;SDS011;576;48.418;10.074;2023-06-04T03:05:10;2.97;;;2.77;;
1174;SDS011;576;48.418;10.074;2023-06-04T03:07:41;2.03;;;1.93;;
1174;SDS011;576;48.418;10.074;2023-06-04T03:10:12;2.77;;;2.57;;
1174;SDS011;576;48.418;10.074;2023-06-04T03:12:43;2.70;;;2.50;;
1174;SDS011;576;48.418;10.074;2023-06-04T03:15:11;2.60;;;2.40;;
1174;SDS011;576;48.418;10.074;2023-06-04T03:17:40;2.77;;;2.57;;
1174;SDS011;576;48.418;10.074;2023-06-04T03:20:09;3.17;;;2.87;;
1174;SDS011;576;48.418;10.074;2023-06-04T03:22:37;3.07;;;2.30;;
1174;SDS011;576;48.418;10.074;2023-06-04T03:25:06;2.73;;;2.50;;
1174;SDS011;576;48.418;10.074;2023-06-04T03:27:34;2.50;;;2.30;;
1174;SDS011;576;48.418;10.074;2023-06-04T03:30:07;2.50;;;2.30;;
1174;SDS011;576;48.418;10.074;2023-06-04T03:32:52;2.37;;;2.17;;
1174;SDS011;576;48.418;10.074;2023-06-04T03:35:20;2.80;;;2.60;;
1174;SDS011;576;48.418;10.074;2023-06-04T03:37:49;2.70;;;2.50;;
1174;SDS011;576;48.418;10.074;2023-06-04T03:40:17;1.90;;;1.80;;
1174;SDS011;576;48.418;10.074;2023-06-04T03:42:46;2.10;;;2.00;;
1174;SDS011;576;48.418;10.074;2023-06-04T03:45:18;4.93;;;3.13;;
1174;SDS011;576;48.418;10.074;2023-06-04T03:47:46;1.83;;;1.73;;
1174;SDS011;576;48.418;10.074;2023-06-04T03:50:14;2.97;;;2.67;;
1174;SDS011;576;48.418;10.074;2023-06-04T03:52:42;2.70;;;2.50;;
1174;SDS011;576;48.418;10.074;2023-06-04T03:55:11;2.70;;;2.50;;
1174;SDS011;576;48.418;10.074;2023-06-04T03:57:40;2.57;;;2.37;;
1174;SDS011;576;48.418;10.074;2023-06-04T04:00:10;2.73;;;2.00;;
1174;SDS011;576;48.418;10.074;2023-06-04T04:02:41;2.20;;;2.00;;
1174;SDS011;576;48.418;10.074;2023-06-04T04:05:19;2.37;;;2.17;;
1174;SDS011;576;48.418;10.074;2023-06-04T04:07:48;2.17;;;1.97;;
1174;SDS011;576;48.418;10.074;2023-06-04T04:10:20;2.53;;;2.33;;
1174;SDS011;576;48.418;10.074;2023-06-04T04:12:48;2.10;;;1.90;;
1174;SDS011;576;48.418;10.074;2023-06-04T04:15:19;2.27;;;2.10;;
1174;SDS011;576;48.418;10.074;2023-06-04T04:17:50;2.10;;;1.67;;
1174;SDS011;576;48.418;10.074;2023-06-04T04:20:19;1.97;;;1.87;;
1174;SDS011;576;48.418;10.074;2023-06-04T04:22:54;2.30;;;2.10;;
1174;SDS011;576;48.418;10.074;2023-06-04T04:25:24;1.80;;;1.70;;
1174;SDS011;576;48.418;10.074;2023-06-04T04:27:54;1.90;;;1.80;;
1174;SDS011;576;48.418;10.074;2023-06-04T04:30:27;2.37;;;2.17;;
1174;SDS011;576;48.418;10.074;2023-06-04T04:32:57;2.20;;;2.00;;
1174;SDS011;576;48.418;10.074;2023-06-04T04:35:32;4.83;;;2.33;;
1174;SDS011;576;48.418;10.074;2023-06-04T04:38:02;2.30;;;2.17;;
1174;SDS011;576;48.418;10.074;2023-06-04T04:40:35;2.67;;;2.47;;
1174;SDS011;576;48.418;10.074;2023-06-04T04:43:05;2.03;;;1.93;;
1174;SDS011;576;48.418;10.074;2023-06-04T04:45:34;2.00;;;1.90;;
1174;SDS011;576;48.418;10.074;2023-06-04T04:48:06;2.17;;;2.00;;
1174;SDS011;576;48.418;10.074;2023-06-04T04:50:34;1.97;;;1.80;;
1174;SDS011;576;48.418;10.074;2023-06-04T04:53:03;2.37;;;2.17;;
1174;SDS011;576;48.418;10.074;2023-06-04T04:55:33;2.17;;;2.07;;
1174;SDS011;576;48.418;10.074;2023-06-04T04:58:01;1.70;;;1.60;;
1174;SDS011;576;48.418;10.074;2023-06-04T05:00:30;2.73;;;2.53;;
1174;SDS011;576;48.418;10.074;2023-06-04T05:03:00;1.90;;;1.80;;
1174;SDS011;576;48.418;10.074;2023-06-04T05:05:31;2.00;;;1.90;;
1174;SDS011;576;48.418;10.074;2023-06-04T05:08:01;2.20;;;2.00;;
1174;SDS011;576;48.418;10.074;2023-06-04T05:10:34;1.67;;;1.57;;
1174;SDS011;576;48.418;10.074;2023-06-04T05:13:04;1.77;;;1.67;;
1174;SDS011;576;48.418;10.074;2023-06-04T05:15:45;2.40;;;2.10;;
1174;SDS011;576;48.418;10.074;2023-06-04T05:18:17;2.30;;;2.10;;
1174;SDS011;576;48.418;10.074;2023-06-04T05:20:48;2.47;;;2.37;;
1174;SDS011;576;48.418;10.074;2023-06-04T05:23:17;2.17;;;1.97;;
1174;SDS011;576;48.418;10.074;2023-06-04T05:25:47;2.47;;;2.27;;
1174;SDS011;576;48.418;10.074;2023-06-04T05:28:17;2.13;;;1.93;;
1174;SDS011;576;48.418;10.074;2023-06-04T05:30:47;2.23;;;1.83;;
1174;SDS011;576;48.418;10.074;2023-06-04T05:33:17;2.10;;;2.00;;
1174;SDS011;576;48.418;10.074;2023-06-04T05:35:56;1.93;;;1.83;;
1174;SDS011;576;48.418;10.074;2023-06-04T05:38:28;2.33;;;2.13;;
1174;SDS011;576;48.418;10.074;2023-06-04T05:41:02;1.70;;;1.60;;
1174;SDS011;576;48.418;10.074;2023-06-04T05:43:33;2.70;;;2.50;;
1174;SDS011;576;48.418;10.074;2023-06-04T05:46:02;2.60;;;2.13;;
1174;SDS011;576;48.418;10.074;2023-06-04T05:48:32;2.20;;;2.10;;
1174;SDS011;576;48.418;10.074;2023-06-04T05:51:02;4.07;;;2.37;;
1174;SDS011;576;48.418;10.074;2023-06-04T05:53:31;2.57;;;1.80;;
1174;SDS011;576;48.418;10.074;2023-06-04T05:55:59;2.33;;;2.23;;
1174;SDS011;576;48.418;10.074;2023-06-04T05:58:28;2.07;;;1.97;;
1174;SDS011;576;48.418;10.074;2023-06-04T06:00:58;2.13;;;2.03;;
1174;SDS011;576;48.418;10.074;2023-06-04T06:03:26;2.27;;;1.93;;
1174;SDS011;576;48.418;10.074;2023-06-04T06:05:57;2.07;;;1.97;;
1174;SDS011;576;48.418;10.074;2023-06-04T06:08:28;2.30;;;2.10;;
1174;SDS011;576;48.418;10.074;2023-06-04T06:10:56;2.53;;;2.33;;
1174;SDS011;576;48.418;10.074;2023-06-04T06:13:25;2.30;;;2.10;;
1174;SDS011;576;48.418;10.074;2023-06-04T06:15:54;1.97;;;1.87;;
1174;SDS011;576;48.418;10.074;2023-06-04T06:18:24;2.10;;;2.00;;
1174;SDS011;576;48.418;10.074;2023-06-04T06:20:52;2.07;;;1.87;;
1174;SDS011;576;48.418;10.074;2023-06-04T06:23:21;2.10;;;1.90;;
1174;SDS011;576;48.418;10.074;2023-06-04T06:25:52;2.40;;;2.20;;
1174;SDS011;576;48.418;10.074;2023-06-04T06:28:24;2.03;;;1.93;;
1174;SDS011;576;48.418;10.074;2023-06-04T06:30:52;1.80;;;1.70;;
1174;SDS011;576;48.418;10.074;2023-06-04T06:33:21;3.10;;;2.50;;
1174;SDS011;576;48.418;10.074;2023-06-04T06:35:50;1.80;;;1.70;;
1174;SDS011;576;48.418;10.074;2023-06-04T06:38:18;4.90;;;1.90;;
1174;SDS011;576;48.418;10.074;2023-06-04T06:40:46;3.63;;;2.00;;
1174;SDS011;576;48.418;10.074;2023-06-04T06:43:16;2.40;;;2.20;;
1174;SDS011;576;48.418;10.074;2023-06-04T06:45:44;2.20;;;2.07;;
1174;SDS011;576;48.418;10.074;2023-06-04T06:48:12;2.20;;;1.80;;
1174;SDS011;576;48.418;10.074;2023-06-04T06:50:40;2.17;;;1.97;;
1174;SDS011;576;48.418;10.074;2023-06-04T06:53:08;1.87;;;1.77;;
1174;SDS011;576;48.418;10.074;2023-06-04T06:55:37;2.03;;;1.93;;
1174;SDS011;576;48.418;10.074;2023-06-04T06:58:05;2.10;;;2.00;;
1174;SDS011;576;48.418;10.074;2023-06-04T07:00:35;2.30;;;1.90;;
1174;SDS011;576;48.418;10.074;2023-06-04T07:03:03;1.80;;;1.70;;
1174;SDS011;576;48.418;10.074;2023-06-04T07:05:31;2.20;;;2.10;;
1174;SDS011;576;48.418;10.074;2023-06-04T07:08:00;2.50;;;2.30;;
1174;SDS011;576;48.418;10.074;2023-06-04T07:14:28;1.90;;;1.80;;
1174;SDS011;576;48.418;10.074;2023-06-04T07:16:58;1.83;;;1.73;;
1174;SDS011;576;48.418;10.074;2023-06-04T07:19:26;2.10;;;2.00;;
1174;SDS011;576;48.418;10.074;2023-06-04T07:21:54;1.83;;;1.73;;
1174;SDS011;576;48.418;10.074;2023-06-04T07:24:23;1.60;;;1.50;;
1174;SDS011;576;48.418;10.074;2023-06-04T07:26:51;2.10;;;1.90;;
1174;SDS011;576;48.418;10.074;2023-06-04T07:29:20;3.73;;;3.43;;
1174;SDS011;576;48.418;10.074;2023-06-04T07:31:49;2.30;;;2.10;;
1174;SDS011;576;48.418;10.074;2023-06-04T07:34:19;1.90;;;1.80;;
1174;SDS011;576;48.418;10.074;2023-06-04T07:36:47;2.13;;;2.03;;
1174;SDS011;576;48.418;10.074;2023-06-04T07:39:15;2.53;;;2.33;;
1174;SDS011;576;48.418;10.074;2023-06-04T07:41:44;2.13;;;1.87;;
1174;SDS011;576;48.418;10.074;2023-06-04T07:44:12;2.00;;;1.90;;
1174;SDS011;576;48.418;10.074;2023-06-04T07:46:40;1.90;;;1.80;;
1174;SDS011;576;48.418;10.074;2023-06-04T07:49:09;2.00;;;1.80;;
1174;SDS011;576;48.418;10.074;2023-06-04T07:51:38;2.20;;;2.00;;
1174;SDS011;576;48.418;10.074;2023-06-04T07:54:06;3.20;;;2.90;;
1174;SDS011;576;48.418;10.074;2023-06-04T07:56:35;2.07;;;1.87;;
1174;SDS011;576;48.418;10.074;2023-06-04T07:59:03;2.60;;;2.40;;
1174;SDS011;576;48.418;10.074;2023-06-04T08:01:32;2.40;;;1.90;;
1174;SDS011;576;48.418;10.074;2023-06-04T08:04:00;2.10;;;2.00;;
1174;SDS011;576;48.418;10.074;2023-06-04T08:06:29;2.70;;;2.50;;
1174;SDS011;576;48.418;10.074;2023-06-04T08:08:58;2.60;;;2.40;;
1174;SDS011;576;48.418;10.074;2023-06-04T08:11:26;5.17;;;2.93;;
1174;SDS011;576;48.418;10.074;2023-06-04T08:13:55;2.73;;;2.53;;
1174;SDS011;576;48.418;10.074;2023-06-04T08:16:23;3.00;;;2.73;;
1174;SDS011;576;48.418;10.074;2023-06-04T08:18:51;2.80;;;2.60;;
1174;SDS011;576;48.418;10.074;2023-06-04T08:21:25;3.40;;;2.80;;
1174;SDS011;576;48.418;10.074;2023-06-04T08:23:53;4.30;;;2.80;;
1174;SDS011;576;48.418;10.074;2023-06-04T08:26:23;4.93;;;2.30;;
1174;SDS011;576;48.418;10.074;2023-06-04T08:28:53;2.70;;;2.50;;
1174;SDS011;576;48.418;10.074;2023-06-04T08:31:22;4.43;;;3.20;;
1174;SDS011;576;48.418;10.074;2023-06-04T08:33:50;3.57;;;3.07;;
1174;SDS011;576;48.418;10.074;2023-06-04T08:36:19;2.63;;;2.43;;
1174;SDS011;576;48.418;10.074;2023-06-04T08:38:47;3.00;;;2.53;;
1174;SDS011;576;48.418;10.074;2023-06-04T08:41:20;3.60;;;2.43;;
1174;SDS011;576;48.418;10.074;2023-06-04T08:43:56;5.50;;;3.40;;
1174;SDS011;576;48.418;10.074;2023-06-04T08:46:27;4.00;;;3.00;;
1174;SDS011;576;48.418;10.074;2023-06-04T08:48:59;3.10;;;2.77;;
1174;SDS011;576;48.418;10.074;2023-06-04T08:51:29;3.20;;;2.90;;
1174;SDS011;576;48.418;10.074;2023-06-04T08:54:04;4.10;;;2.77;;
1174;SDS011;576;48.418;10.074;2023-06-04T08:56:35;3.40;;;2.80;;
1174;SDS011;576;48.418;10.074;2023-06-04T08:59:05;4.67;;;3.00;;
1174;SDS011;576;48.418;10.074;2023-06-04T09:01:35;2.83;;;2.63;;
1174;SDS011;576;48.418;10.074;2023-06-04T09:04:05;3.03;;;2.70;;
1174;SDS011;576;48.418;10.074;2023-06-04T09:06:38;3.57;;;3.03;;
1174;SDS011;576;48.418;10.074;2023-06-04T09:09:08;4.17;;;3.17;;
1174;SDS011;576;48.418;10.074;2023-06-04T09:11:41;7.23;;;3.13;;
1174;SDS011;576;48.418;10.074;2023-06-04T09:14:14;3.40;;;2.67;;
1174;SDS011;576;48.418;10.074;2023-06-04T09:16:44;5.23;;;2.87;;
1174;SDS011;576;48.418;10.074;2023-06-04T09:19:13;4.20;;;2.73;;
1174;SDS011;576;48.418;10.074;2023-06-04T09:21:48;4.97;;;2.53;;
1174;SDS011;576;48.418;10.074;2023-06-04T09:24:17;4.07;;;2.87;;
1174;SDS011;576;48.418;10.074;2023-06-04T09:26:47;4.13;;;3.00;;
1174;SDS011;576;48.418;10.074;2023-06-04T09:29:15;7.23;;;2.93;;
1174;SDS011;576;48.418;10.074;2023-06-04T09:31:45;3.10;;;2.53;;
1174;SDS011;576;48.418;10.074;2023-06-04T09:34:14;6.10;;;3.13;;
1174;SDS011;576;48.418;10.074;2023-06-04T09:36:42;5.53;;;2.97;;
1174;SDS011;576;48.418;10.074;2023-06-04T09:39:16;3.80;;;2.47;;
1174;SDS011;576;48.418;10.074;2023-06-04T09:41:46;3.67;;;3.47;;
1174;SDS011;576;48.418;10.074;2023-06-04T09:44:26;4.43;;;3.17;;
1174;SDS011;576;48.418;10.074;2023-06-04T09:46:54;2.80;;;2.60;;
1174;SDS011;576;48.418;10.074;2023-06-04T09:49:23;3.93;;;3.00;;
1174;SDS011;576;48.418;10.074;2023-06-04T09:51:52;3.00;;;2.87;;
1174;SDS011;576;48.418;10.074;2023-06-04T09:54:20;3.53;;;2.60;;
1174;SDS011;576;48.418;10.074;2023-06-04T09:56:49;5.73;;;2.83;;
1174;SDS011;576;48.418;10.074;2023-06-04T09:59:18;7.40;;;3.60;;
1174;SDS011;576;48.418;10.074;2023-06-04T10:01:47;3.67;;;2.67;;
1174;SDS011;576;48.418;10.074;2023-06-04T10:04:16;6.73;;;3.53;;
1174;SDS011;576;48.418;10.074;2023-06-04T10:06:44;6.13;;;2.83;;
1174;SDS011;576;48.418;10.074;2023-06-04T10:09:12;2.90;;;2.47;;
1174;SDS011;576;48.418;10.074;2023-06-04T10:11:49;5.50;;;2.97;;
1174;SDS011;576;48.418;10.074;2023-06-04T10:14:25;5.43;;;3.03;;
1174;SDS011;576;48.418;10.074;2023-06-04T10:16:59;3.70;;;2.90;;
1174;SDS011;576;48.418;10.074;2023-06-04T10:19:28;3.63;;;3.00;;
1174;SDS011;576;48.418;10.074;2023-06-04T10:21:57;5.53;;;3.60;;
1174;SDS011;576;48.418;10.074;2023-06-04T10:24:26;2.83;;;2.53;;
1174;SDS011;576;48.418;10.074;2023-06-04T10:26:56;7.33;;;2.93;;
1174;SDS011;576;48.418;10.074;2023-06-04T10:29:26;3.93;;;2.90;;
1174;SDS011;576;48.418;10.074;2023-06-04T10:31:55;3.10;;;2.80;;
1174;SDS011;576;48.418;10.074;2023-06-04T10:34:23;3.20;;;2.73;;
1174;SDS011;576;48.418;10.074;2023-06-04T10:36:54;3.10;;;2.10;;
1174;SDS011;576;48.418;10.074;2023-06-04T10:39:26;3.50;;;2.60;;
1174;SDS011;576;48.418;10.074;2023-06-04T10:42:00;3.67;;;2.93;;
1174;SDS011;576;48.418;10.074;2023-06-04T10:44:29;3.40;;;3.10;;
1174;SDS011;576;48.418;10.074;2023-06-04T10:46:58;3.07;;;2.80;;
1174;SDS011;576;48.418;10.074;2023-06-04T10:49:27;3.33;;;2.90;;
1174;SDS011;576;48.418;10.074;2023-06-04T10:51:56;3.07;;;2.77;;
1174;SDS011;576;48.418;10.074;2023-06-04T10:54:29;3.57;;;3.00;;
1174;SDS011;576;48.418;10.074;2023-06-04T10:57:09;3.00;;;2.60;;
1174;SDS011;576;48.418;10.074;2023-06-04T10:59:39;3.20;;;2.90;;
1174;SDS011;576;48.418;10.074;2023-06-04T11:02:07;2.47;;;2.13;;
1174;SDS011;576;48.418;10.074;2023-06-04T11:04:36;3.03;;;2.50;;
1174;SDS011;576;48.418;10.074;2023-06-04T11:07:05;5.50;;;2.73;;
1174;SDS011;576;48.418;10.074;2023-06-04T11:09:36;3.57;;;2.13;;
1174;SDS011;576;48.418;10.074;2023-06-04T11:12:16;5.30;;;3.20;;
1174;SDS011;576;48.418;10.074;2023-06-04T11:14:53;3.10;;;2.80;;
1174;SDS011;576;48.418;10.074;2023-06-04T11:17:22;3.20;;;2.97;;
1174;SDS011;576;48.418;10.074;2023-06-04T11:19:50;3.33;;;3.03;;
1174;SDS011;576;48.418;10.074;2023-06-04T11:22:22;2.73;;;2.47;;
1174;SDS011;576;48.418;10.074;2023-06-04T11:24:55;3.20;;;2.90;;
1174;SDS011;576;48.418;10.074;2023-06-04T11:27:26;3.70;;;3.10;;
1174;SDS011;576;48.418;10.074;2023-06-04T11:30:02;3.23;;;2.60;;
1174;SDS011;576;48.418;10.074;2023-06-04T11:32:31;3.20;;;2.80;;
1174;SDS011;576;48.418;10.074;2023-06-04T11:35:03;3.63;;;3.10;;
1174;SDS011;576;48.418;10.074;2023-06-04T11:37:32;2.93;;;2.60;;
1174;SDS011;576;48.418;10.074;2023-06-04T11:40:01;3.50;;;2.93;;
1174;SDS011;576;48.418;10.074;2023-06-04T11:42:33;2.87;;;2.63;;
1174;SDS011;576;48.418;10.074;2023-06-04T11:45:02;4.20;;;2.60;;
1174;SDS011;576;48.418;10.074;2023-06-04T11:47:31;3.00;;;2.80;;
1174;SDS011;576;48.418;10.074;2023-06-04T11:49:59;3.23;;;2.60;;
1174;SDS011;576;48.418;10.074;2023-06-04T11:52:28;4.27;;;3.50;;
1174;SDS011;576;48.418;10.074;2023-06-04T11:54:56;2.90;;;2.70;;
1174;SDS011;576;48.418;10.074;2023-06-04T11:57:24;3.70;;;3.17;;
1174;SDS011;576;48.418;10.074;2023-06-04T11:59:54;2.97;;;2.77;;
1174;SDS011;576;48.418;10.074;2023-06-04T12:02:23;4.43;;;3.00;;
1174;SDS011;576;48.418;10.074;2023-06-04T12:04:51;4.60;;;2.77;;
1174;SDS011;576;48.418;10.074;2023-06-04T12:07:19;3.60;;;3.17;;
1174;SDS011;576;48.418;10.074;2023-06-04T12:09:50;3.73;;;2.93;;
1174;SDS011;576;48.418;10.074;2023-06-04T12:12:21;7.63;;;3.07;;
1174;SDS011;576;48.418;10.074;2023-06-04T12:14:59;4.07;;;3.30;;
1174;SDS011;576;48.418;10.074;2023-06-04T12:17:27;3.47;;;2.73;;
1174;SDS011;576;48.418;10.074;2023-06-04T12:19:55;3.30;;;3.00;;
1174;SDS011;576;48.418;10.074;2023-06-04T12:22:25;3.10;;;2.90;;
1174;SDS011;576;48.418;10.074;2023-06-04T12:24:54;5.00;;;3.77;;
1174;SDS011;576;48.418;10.074;2023-06-04T12:27:24;2.73;;;2.53;;
1174;SDS011;576;48.418;10.074;2023-06-04T12:29:56;3.67;;;3.37;;
1174;SDS011;576;48.418;10.074;2023-06-04T12:32:27;5.30;;;3.40;;
1174;SDS011;576;48.418;10.074;2023-06-04T12:34:56;3.37;;;3.07;;
1174;SDS011;576;48.418;10.074;2023-06-04T12:37:24;4.37;;;3.93;;
1174;SDS011;576;48.418;10.074;2023-06-04T12:39:53;3.77;;;3.40;;
1174;SDS011;576;48.418;10.074;2023-06-04T12:42:22;4.30;;;3.90;;
1174;SDS011;576;48.418;10.074;2023-06-04T12:44:51;4.00;;;3.70;;
1174;SDS011;576;48.418;10.074;2023-06-04T12:47:20;5.80;;;3.80;;
1174;SDS011;576;48.418;10.074;2023-06-04T12:49:48;3.50;;;3.20;;
1174;SDS011;576;48.418;10.074;2023-06-04T12:52:18;6.67;;;3.43;;
1174;SDS011;576;48.418;10.074;2023-06-04T12:54:47;3.77;;;3.30;;
1174;SDS011;576;48.418;10.074;2023-06-04T12:57:16;5.90;;;3.67;;
1174;SDS011;576;48.418;10.074;2023-06-04T12:59:44;4.30;;;3.90;;
1174;SDS011;576;48.418;10.074;2023-06-04T13:02:12;4.60;;;4.20;;
1174;SDS011;576;48.418;10.074;2023-06-04T13:04:42;4.87;;;4.40;;
1174;SDS011;576;48.418;10.074;2023-06-04T13:07:12;6.73;;;3.60;;
1174;SDS011;576;48.418;10.074;2023-06-04T13:09:41;4.43;;;3.70;;
1174;SDS011;576;48.418;10.074;2023-06-04T13:12:09;4.80;;;4.30;;
1174;SDS011;576;48.418;10.074;2023-06-04T13:14:37;5.53;;;3.80;;
1174;SDS011;576;48.418;10.074;2023-06-04T13:17:05;5.23;;;4.07;;
1174;SDS011;576;48.418;10.074;2023-06-04T13:19:49;5.37;;;4.60;;
1174;SDS011;576;48.418;10.074;2023-06-04T13:22:18;4.43;;;4.03;;
1174;SDS011;576;48.418;10.074;2023-06-04T13:24:47;4.50;;;4.10;;
1174;SDS011;576;48.418;10.074;2023-06-04T13:27:15;4.57;;;4.20;;
1174;SDS011;576;48.418;10.074;2023-06-04T13:29:43;3.90;;;3.60;;
1174;SDS011;576;48.418;10.074;2023-06-04T13:32:11;6.10;;;4.60;;
1174;SDS011;576;48.418;10.074;2023-06-04T13:34:39;6.30;;;4.40;;
1174;SDS011;576;48.418;10.074;2023-06-04T13:37:09;3.70;;;3.40;;
1174;SDS011;576;48.418;10.074;2023-06-04T13:39:39;5.57;;;4.17;;
1174;SDS011;576;48.418;10.074;2023-06-04T13:42:07;6.20;;;4.50;;
1174;SDS011;576;48.418;10.074;2023-06-04T13:44:35;4.80;;;3.70;;
1174;SDS011;576;48.418;10.074;2023-06-04T13:47:06;4.90;;;4.40;;
1174;SDS011;576;48.418;10.074;2023-06-04T13:49:34;5.90;;;4.63;;
1174;SDS011;576;48.418;10.074;2023-06-04T13:52:03;4.07;;;3.67;;
1174;SDS011;576;48.418;10.074;2023-06-04T13:54:32;5.70;;;4.77;;
1174;SDS011;576;48.418;10.074;2023-06-04T13:57:01;11.30;;;4.30;;
1174;SDS011;576;48.418;10.074;2023-06-04T13:59:31;6.00;;;4.90;;
1174;SDS011;576;48.418;10.074;2023-06-04T14:01:59;5.23;;;4.40;;
1174;SDS011;576;48.418;10.074;2023-06-04T14:04:28;6.23;;;4.70;;
1174;SDS011;576;48.418;10.074;2023-06-04T14:06:56;7.33;;;4.87;;
1174;SDS011;576;48.418;10.074;2023-06-04T14:09:25;8.13;;;4.77;;
1174;SDS011;576;48.418;10.074;2023-06-04T14:11:54;4.30;;;3.90;;
1174;SDS011;576;48.418;10.074;2023-06-04T14:14:22;6.53;;;5.40;;
1174;SDS011;576;48.418;10.074;2023-06-04T14:16:51;7.10;;;4.73;;
1174;SDS011;576;48.418;10.074;2023-06-04T14:19:24;5.33;;;4.67;;
1174;SDS011;576;48.418;10.074;2023-06-04T14:21:52;4.90;;;4.10;;
1174;SDS011;576;48.418;10.074;2023-06-04T14:24:20;6.50;;;4.73;;
1174;SDS011;576;48.418;10.074;2023-06-04T14:26:48;5.53;;;4.67;;
1174;SDS011;576;48.418;10.074;2023-06-04T14:29:18;6.00;;;4.57;;
1174;SDS011;576;48.418;10.074;2023-06-04T14:31:46;7.70;;;4.60;;
1174;SDS011;576;48.418;10.074;2023-06-04T14:34:15;5.17;;;4.30;;
1174;SDS011;576;48.418;10.074;2023-06-04T14:36:43;6.43;;;4.67;;
1174;SDS011;576;48.418;10.074;2023-06-04T14:39:11;4.33;;;4.00;;
1174;SDS011;576;48.418;10.074;2023-06-04T14:41:39;4.77;;;4.13;;
1174;SDS011;576;48.418;10.074;2023-06-04T14:44:08;5.43;;;4.47;;
1174;SDS011;576;48.418;10.074;2023-06-04T14:46:37;4.57;;;3.90;;
1174;SDS011;576;48.418;10.074;2023-06-04T14:49:07;6.23;;;4.90;;
1174;SDS011;576;48.418;10.074;2023-06-04T14:51:35;4.17;;;3.87;;
1174;SDS011;576;48.418;10.074;2023-06-04T14:54:04;4.27;;;3.87;;
1174;SDS011;576;48.418;10.074;2023-06-04T14:56:32;4.23;;;3.93;;
1174;SDS011;576;48.418;10.074;2023-06-04T14:59:00;4.77;;;4.30;;
1174;SDS011;576;48.418;10.074;2023-06-04T15:01:31;5.27;;;4.23;;
1174;SDS011;576;48.418;10.074;2023-06-04T15:04:01;4.87;;;4.47;;
1174;SDS011;576;48.418;10.074;2023-06-04T15:06:30;4.67;;;4.27;;
1174;SDS011;576;48.418;10.074;2023-06-04T15:08:58;3.80;;;3.50;;
1174;SDS011;576;48.418;10.074;2023-06-04T15:11:27;4.20;;;3.90;;
1174;SDS011;576;48.418;10.074;2023-06-04T15:13:55;8.30;;;5.00;;
1174;SDS011;576;48.418;10.074;2023-06-04T15:16:23;5.43;;;4.17;;
1174;SDS011;576;48.418;10.074;2023-06-04T15:18:51;4.63;;;4.20;;
1174;SDS011;576;48.418;10.074;2023-06-04T15:21:22;4.90;;;4.50;;
1174;SDS011;576;48.418;10.074;2023-06-04T15:23:50;3.80;;;3.50;;
1174;SDS011;576;48.418;10.074;2023-06-04T15:26:19;5.30;;;4.90;;
1174;SDS011;576;48.418;10.074;2023-06-04T15:28:47;5.90;;;5.00;;
1174;SDS011;576;48.418;10.074;2023-06-04T15:31:15;4.60;;;4.20;;
1174;SDS011;576;48.418;10.074;2023-06-04T15:33:44;5.23;;;4.70;;